createdAt,value
2018-11-21T00:01:31.055Z,64.60
2018-11-21T00:04:19.608Z,65.00
2018-11-21T00:07:08.070Z,65.10
2018-11-21T00:09:56.564Z,65.00
2018-11-21T00:12:46.394Z,64.90
2018-11-21T00:15:34.993Z,65.00
2018-11-21T00:18:23.292Z,65.00
2018-11-21T00:21:12.098Z,65.00
2018-11-21T00:27:04.488Z,64.40
2018-11-21T00:29:45.287Z,65.00
2018-11-21T00:32:27.065Z,64.80
2018-11-21T00:35:08.036Z,65.10
2018-11-21T00:37:48.482Z,65.10
2018-11-21T00:40:29.135Z,64.40
2018-11-21T00:43:10.308Z,65.30
2018-11-21T00:45:51.542Z,65.30
2018-11-21T00:48:32.879Z,65.30
2018-11-21T00:51:14.485Z,65.40
2018-11-21T00:53:55.629Z,64.80
2018-11-21T00:56:36.606Z,64.70
2018-11-21T00:59:17.337Z,65.30
2018-11-21T01:01:58.530Z,65.30
2018-11-21T01:04:40.061Z,65.40
2018-11-21T01:07:21.175Z,65.50
2018-11-21T01:10:01.699Z,65.40
2018-11-21T01:12:42.772Z,65.40
2018-11-21T01:15:23.862Z,65.40
2018-11-21T01:18:05.065Z,65.30
2018-11-21T01:20:46.178Z,65.30
2018-11-21T01:23:26.703Z,65.40
2018-11-21T01:26:07.694Z,65.40
2018-11-21T01:37:06.568Z,65.50
2018-11-21T01:39:47.550Z,65.50
2018-11-21T01:42:28.822Z,65.60
2018-11-21T01:47:59.391Z,65.60
2018-11-21T01:53:25.985Z,65.30
2018-11-21T01:56:07.440Z,65.50
2018-11-21T01:58:48.504Z,65.70
2018-11-21T02:01:29.659Z,65.50
2018-11-21T02:04:11.197Z,65.60
2018-11-21T02:06:52.002Z,65.70
2018-11-21T02:09:33.226Z,65.50
2018-11-21T02:12:14.859Z,65.60
2018-11-21T02:20:28.197Z,65.50
2018-11-21T02:34:36.694Z,65.50
2018-11-21T02:45:59.518Z,65.80
2018-11-21T02:48:40.921Z,65.90
2018-11-21T02:51:22.253Z,65.80
2018-11-21T02:54:06.036Z,66.10
2018-11-21T02:56:46.710Z,66.10
2018-11-21T02:59:28.302Z,66.40
2018-11-21T03:02:09.414Z,66.50
2018-11-21T03:07:50.276Z,66.50
2018-11-21T03:13:13.551Z,65.70
2018-11-21T03:15:54.785Z,66.40
2018-11-21T03:18:36.548Z,66.60
2018-11-21T03:21:18.316Z,66.60
2018-11-21T03:23:59.442Z,66.60
2018-11-21T03:26:40.587Z,66.60
2018-11-21T03:29:21.689Z,66.60
2018-11-21T03:32:02.207Z,66.60
2018-11-21T03:34:43.692Z,66.60
2018-11-21T03:37:24.524Z,66.50
2018-11-21T03:40:05.372Z,66.40
2018-11-21T03:42:46.474Z,66.60
2018-11-21T03:45:27.738Z,66.60
2018-11-21T03:48:08.967Z,66.50
2018-11-21T03:50:49.979Z,66.50
2018-11-21T03:53:31.309Z,66.50
2018-11-21T03:56:12.357Z,66.60
2018-11-21T03:58:54.217Z,66.50
2018-11-21T04:01:35.466Z,66.50
2018-11-21T04:04:16.122Z,66.40
2018-11-21T04:06:57.823Z,66.50
2018-11-21T04:09:38.877Z,66.50
2018-11-21T04:12:19.571Z,65.80
2018-11-21T04:15:03.825Z,66.50
2018-11-21T04:20:30.867Z,66.50
2018-11-21T04:23:12.138Z,66.70
2018-11-21T04:31:41.489Z,66.60
2018-11-21T04:34:10.620Z,66.60
2018-11-21T04:39:54.938Z,66.70
2018-11-21T04:45:34.309Z,66.60
2018-11-21T04:48:23.089Z,66.50
2018-11-21T04:51:11.924Z,66.70
2018-11-21T04:54:00.542Z,66.80
2018-11-21T04:56:49.013Z,66.80
2018-11-21T04:59:37.893Z,66.90
2018-11-21T05:02:26.345Z,66.90
2018-11-21T05:05:13.259Z,66.90
2018-11-21T05:10:54.657Z,66.90
2018-11-21T05:13:43.441Z,66.80
2018-11-21T05:16:31.779Z,66.90
2018-11-21T05:19:20.268Z,66.90
2018-11-21T05:22:08.720Z,67.10
2018-11-21T05:24:57.063Z,66.90
2018-11-21T05:27:45.208Z,67.10
2018-11-21T05:30:33.226Z,66.50
2018-11-21T05:33:21.664Z,67.10
2018-11-21T05:36:10.042Z,66.80
2018-11-21T05:38:58.828Z,67.10
2018-11-21T05:41:46.852Z,66.60
2018-11-21T05:44:35.022Z,67.10
2018-11-21T05:47:23.329Z,67.10
2018-11-21T05:50:12.759Z,66.90
2018-11-21T05:53:00.901Z,66.60
2018-11-21T05:55:49.467Z,67.10
2018-11-21T05:58:38.288Z,67.10
2018-11-21T06:01:26.869Z,67.10
2018-11-21T06:04:15.000Z,66.90
2018-11-21T06:07:03.552Z,67.10
2018-11-21T06:09:52.078Z,67.10
2018-11-21T06:12:41.100Z,67.10
2018-11-21T06:18:23.627Z,67.10
2018-11-21T06:21:12.165Z,67.00
2018-11-21T06:24:00.303Z,67.10
2018-11-21T06:26:51.832Z,67.10
2018-11-21T06:29:40.331Z,67.10
2018-11-21T06:32:28.902Z,67.10
2018-11-21T06:35:17.495Z,67.10
2018-11-21T06:38:06.415Z,67.10
2018-11-21T06:40:55.306Z,67.20
2018-11-21T06:43:43.464Z,67.10
2018-11-21T06:46:31.664Z,67.00
2018-11-21T06:49:19.808Z,67.00
2018-11-21T06:52:08.461Z,67.10
2018-11-21T06:54:56.655Z,67.10
2018-11-21T06:57:45.214Z,67.10
2018-11-21T07:00:33.552Z,67.10
2018-11-21T07:03:21.691Z,67.10
2018-11-21T07:06:09.882Z,67.00
2018-11-21T07:08:58.195Z,67.20
2018-11-21T07:11:28.610Z,67.10
2018-11-21T07:14:16.757Z,67.10
2018-11-21T07:17:05.555Z,67.10
2018-11-21T07:19:54.043Z,67.10
2018-11-21T07:22:42.357Z,67.10
2018-11-21T07:28:19.263Z,67.10
2018-11-21T07:31:00.988Z,67.00
2018-11-21T07:36:24.624Z,67.10
2018-11-21T07:39:05.639Z,67.10
2018-11-21T07:41:47.031Z,67.20
2018-11-21T07:47:17.703Z,67.00
2018-11-21T07:55:26.918Z,67.10
2018-11-21T07:58:13.057Z,67.10
2018-11-21T08:00:55.101Z,67.20
2018-11-21T08:09:34.165Z,67.00
2018-11-21T08:15:12.150Z,67.10
2018-11-21T08:26:37.994Z,67.80
2018-11-21T08:29:19.508Z,67.00
2018-11-21T08:32:03.390Z,66.90
2018-11-21T08:34:44.872Z,67.00
2018-11-21T08:37:26.268Z,66.90
2018-11-21T08:40:07.245Z,66.90
2018-11-21T08:42:48.607Z,66.40
2018-11-21T08:45:29.938Z,67.00
2018-11-21T08:48:11.185Z,66.90
2018-11-21T08:50:52.490Z,67.00
2018-11-21T08:53:33.937Z,67.10
2018-11-21T08:56:03.667Z,67.10
2018-11-21T08:58:52.486Z,67.20
2018-11-21T09:01:41.396Z,67.10
2018-11-21T09:04:29.555Z,67.10
2018-11-21T09:07:17.752Z,66.40
2018-11-21T09:10:07.228Z,67.10
2018-11-21T09:12:55.738Z,67.10
2018-11-21T09:15:44.244Z,67.10
2018-11-21T09:18:32.498Z,67.10
2018-11-21T09:21:20.673Z,66.50
2018-11-21T09:24:09.159Z,66.90
2018-11-21T09:26:57.655Z,67.00
2018-11-21T09:29:46.168Z,67.00
2018-11-21T09:32:34.744Z,66.90
2018-11-21T09:35:22.915Z,66.90
2018-11-21T09:37:52.336Z,66.90
2018-11-21T09:40:41.236Z,67.00
2018-11-21T09:43:29.430Z,66.50
2018-11-21T09:45:58.730Z,66.90
2018-11-21T09:51:21.148Z,67.00
2018-11-21T09:54:09.491Z,66.90
2018-11-21T09:56:58.386Z,66.70
2018-11-21T09:59:46.544Z,66.60
2018-11-21T10:09:08.629Z,66.70
2018-11-21T10:11:57.124Z,66.70
2018-11-21T10:14:45.645Z,66.90
2018-11-21T10:17:33.910Z,66.80
2018-11-21T10:20:22.055Z,66.90
2018-11-21T10:23:10.569Z,66.90
2018-11-21T10:25:39.899Z,66.70
2018-11-21T10:28:28.434Z,66.70
2018-11-21T10:31:17.334Z,66.70
2018-11-21T10:34:06.158Z,66.90
2018-11-21T10:36:55.048Z,66.80
2018-11-21T10:39:43.377Z,66.90
2018-11-21T10:42:32.217Z,66.70
2018-11-21T10:45:20.241Z,66.30
2018-11-21T10:48:08.766Z,66.70
2018-11-21T10:50:57.059Z,66.70
2018-11-21T10:53:45.635Z,66.70
2018-11-21T10:56:34.014Z,66.80
2018-11-21T10:59:22.583Z,66.60
2018-11-21T11:02:23.647Z,65.90
2018-11-21T11:05:32.761Z,66.60
2018-11-21T11:11:57.139Z,66.70
2018-11-21T11:17:45.895Z,66.60
2018-11-21T11:20:35.776Z,66.60
2018-11-21T11:29:51.537Z,66.40
2018-11-21T11:32:58.882Z,66.40
2018-11-21T11:36:05.976Z,66.30
2018-11-21T11:39:13.431Z,66.30
2018-11-21T11:42:20.583Z,65.70
2018-11-21T11:51:45.964Z,66.40
2018-11-21T11:54:46.003Z,65.90
2018-11-21T11:57:45.624Z,66.40
2018-11-21T12:00:51.536Z,66.40
2018-11-21T12:03:54.271Z,66.10
2018-11-21T12:06:51.234Z,65.70
2018-11-21T12:09:51.037Z,66.20
2018-11-21T12:15:49.438Z,66.10
2018-11-21T12:18:52.147Z,66.10
2018-11-21T12:24:56.776Z,65.90
2018-11-21T12:33:30.324Z,66.00
2018-11-21T12:47:54.986Z,65.90
2018-11-21T12:51:02.501Z,66.20
2018-11-21T12:57:23.581Z,65.90
2018-11-21T13:09:23.975Z,65.90
2018-11-21T13:18:24.895Z,65.90
2018-11-21T13:21:32.459Z,65.70
2018-11-21T13:24:39.564Z,65.90
2018-11-21T13:27:46.825Z,65.90
2018-11-21T13:30:53.974Z,65.90
2018-11-21T13:34:01.487Z,65.80
2018-11-21T13:37:08.672Z,65.70
2018-11-21T13:40:15.983Z,65.80
2018-11-21T13:43:22.180Z,65.90
2018-11-21T13:46:29.343Z,65.10
2018-11-21T13:49:36.838Z,65.20
2018-11-21T13:52:43.967Z,65.70
2018-11-21T13:55:32.337Z,65.80
2018-11-21T13:58:20.699Z,65.90
2018-11-21T14:01:08.992Z,65.70
2018-11-21T14:03:57.733Z,65.80
2018-11-21T14:06:46.228Z,65.90
2018-11-21T14:09:34.746Z,65.90
2018-11-21T14:12:23.244Z,65.30
2018-11-21T14:15:11.615Z,65.90
2018-11-21T14:17:59.953Z,65.90
2018-11-21T14:20:47.986Z,65.30
2018-11-21T14:23:36.018Z,65.80
2018-11-21T14:26:24.658Z,65.30
2018-11-21T14:28:54.023Z,65.30
2018-11-21T14:34:31.493Z,66.00
2018-11-21T14:37:19.534Z,65.50
2018-11-21T14:40:27.119Z,65.80
2018-11-21T14:43:15.154Z,65.80
2018-11-21T14:46:03.466Z,65.90
2018-11-21T14:48:52.113Z,65.90
2018-11-21T14:51:40.615Z,65.30
2018-11-21T14:54:29.530Z,65.90
2018-11-21T14:57:18.029Z,66.00
2018-11-21T15:00:09.929Z,66.10
2018-11-21T15:02:58.476Z,65.90
2018-11-21T15:05:27.401Z,65.90
2018-11-21T15:11:07.625Z,66.10
2018-11-21T15:13:55.807Z,65.80
2018-11-21T15:16:44.394Z,65.90
2018-11-21T15:19:32.912Z,66.10
2018-11-21T15:25:29.405Z,66.00
2018-11-21T15:28:17.612Z,65.90
2018-11-21T15:31:06.338Z,65.60
2018-11-21T15:33:54.540Z,65.90
2018-11-21T15:36:43.008Z,65.90
2018-11-21T15:45:23.913Z,65.90
2018-11-21T15:57:09.155Z,65.70
2018-11-21T16:05:51.756Z,65.70
